This is the latest recevied weather packets stored in our database for station/object N4OGP-WX. If no packets are shown the sender has not sent any weather packets the latest 10 day(s).
| Time | Temp. | Humidity | Pressure | Rain* | Wind** | Luminosity | Snow |
|---|---|---|---|---|---|---|---|
| 1777576340 | 23.89° C | 42% | 1020.4 hPa | 0 mm | - | - | - |
| 1777576280 | 25.56° C | 75% | 1009.6 hPa | 0 mm | - | - | - |
| 1777576190 | 23.89° C | 42% | 1020.4 hPa | 0 mm | - | - | - |
| 1777576130 | 23.89° C | 42% | 1020.4 hPa | 0 mm | - | - | - |
| 1777576070 | 25.56° C | 75% | 1009.7 hPa | 0 mm | - | - | - |
| 1777576010 | 23.89° C | 42% | 1020.4 hPa | 0 mm | - | - | - |
| 1777575950 | 23.89° C | 42% | 1020.4 hPa | 0 mm | - | - | - |
| 1777575890 | 23.89° C | 42% | 1020.4 hPa | 0 mm | - | - | - |
| 1777575800 | 25.56° C | 76% | 1009.6 hPa | 0 mm | - | - | - |
| 1777575740 | 23.89° C | 42% | 1020.4 hPa | 0 mm | - | - | - |
| 1777575680 | 25.56° C | 75% | 1009.6 hPa | 0 mm | - | - | - |
| 1777575620 | 25.56° C | 76% | 1009.6 hPa | 0 mm | - | - | - |
| 1777575560 | 23.89° C | 42% | 1020.4 hPa | 0 mm | - | - | - |
| 1777575500 | 23.89° C | 42% | 1020.4 hPa | 0 mm | - | - | - |
| 1777575440 | 25.56° C | 75% | 1009.6 hPa | 0 mm | - | - | - |
| 1777575380 | 23.89° C | 42% | 1020.4 hPa | 0 mm | - | - | - |
| 1777575320 | 23.89° C | 42% | 1020.4 hPa | 0 mm | - | - | - |
| 1777575260 | 23.89° C | 42% | 1020.4 hPa | 0 mm | - | - | - |
| 1777575200 | 23.89° C | 42% | 1020.4 hPa | 0 mm | - | - | - |
| 1777575140 | 26.11° C | 73% | 1009.8 hPa | 0 mm | - | - | - |
| 1777575080 | 26.11° C | 73% | 1009.8 hPa | 0 mm | - | - | - |
| 1777575020 | 26.11° C | 73% | 1009.8 hPa | 0 mm | - | - | - |
| 1777574960 | 23.89° C | 42% | 1020.4 hPa | 0 mm | - | - | - |
| 1777574900 | 26.11° C | 73% | 1009.8 hPa | 0 mm | - | - | - |
| 1777574840 | 26.11° C | 73% | 1009.8 hPa | 0 mm | - | - | - |
* Rain latest hour (hover to see other rain measurements)
** Current wind speed in m/s (hover to see current wind gust speed)